sensor_id;sensor_type;location;lat;lon;timestamp;temperature;humidity
23079;DHT22;11707;50.830;4.364;2023-01-24T00:00:40;3.10;99.90
23079;DHT22;11707;50.830;4.364;2023-01-24T00:03:06;3.00;99.90
23079;DHT22;11707;50.830;4.364;2023-01-24T00:05:38;3.10;99.90
23079;DHT22;11707;50.830;4.364;2023-01-24T00:08:04;3.00;99.90
23079;DHT22;11707;50.830;4.364;2023-01-24T00:10:30;3.10;99.90
23079;DHT22;11707;50.830;4.364;2023-01-24T00:12:57;3.10;99.90
23079;DHT22;11707;50.830;4.364;2023-01-24T00:15:22;3.10;99.90
23079;DHT22;11707;50.830;4.364;2023-01-24T00:17:48;3.00;99.90
23079;DHT22;11707;50.830;4.364;2023-01-24T00:20:15;3.00;99.90
23079;DHT22;11707;50.830;4.364;2023-01-24T00:22:41;2.90;99.90
23079;DHT22;11707;50.830;4.364;2023-01-24T00:25:07;3.00;99.90
23079;DHT22;11707;50.830;4.364;2023-01-24T00:27:33;3.10;99.90
23079;DHT22;11707;50.830;4.364;2023-01-24T00:30:03;3.10;99.90
23079;DHT22;11707;50.830;4.364;2023-01-24T00:32:30;3.10;99.90
23079;DHT22;11707;50.830;4.364;2023-01-24T00:34:55;3.10;99.90
23079;DHT22;11707;50.830;4.364;2023-01-24T00:37:21;3.10;99.90
23079;DHT22;11707;50.830;4.364;2023-01-24T00:39:47;3.10;99.90
23079;DHT22;11707;50.830;4.364;2023-01-24T00:42:12;3.10;99.90
23079;DHT22;11707;50.830;4.364;2023-01-24T00:44:38;3.20;99.90
23079;DHT22;11707;50.830;4.364;2023-01-24T00:47:04;3.20;99.90
23079;DHT22;11707;50.830;4.364;2023-01-24T00:49:29;3.30;99.90
23079;DHT22;11707;50.830;4.364;2023-01-24T00:51:55;3.30;99.90
23079;DHT22;11707;50.830;4.364;2023-01-24T00:54:21;3.30;99.90
23079;DHT22;11707;50.830;4.364;2023-01-24T00:56:47;3.30;99.90
23079;DHT22;11707;50.830;4.364;2023-01-24T00:59:12;3.20;99.90
23079;DHT22;11707;50.830;4.364;2023-01-24T01:01:39;3.20;99.90
23079;DHT22;11707;50.830;4.364;2023-01-24T01:04:05;3.10;99.90
23079;DHT22;11707;50.830;4.364;2023-01-24T01:06:31;3.10;99.90
23079;DHT22;11707;50.830;4.364;2023-01-24T01:08:57;3.20;99.90
23079;DHT22;11707;50.830;4.364;2023-01-24T01:11:22;3.20;99.90
23079;DHT22;11707;50.830;4.364;2023-01-24T01:13:48;3.30;99.90
23079;DHT22;11707;50.830;4.364;2023-01-24T01:16:17;3.20;99.90
23079;DHT22;11707;50.830;4.364;2023-01-24T01:18:45;3.20;99.90
23079;DHT22;11707;50.830;4.364;2023-01-24T01:21:17;3.10;99.90
23079;DHT22;11707;50.830;4.364;2023-01-24T01:23:43;3.10;99.90
23079;DHT22;11707;50.830;4.364;2023-01-24T01:26:15;3.30;99.90
23079;DHT22;11707;50.830;4.364;2023-01-24T01:28:41;3.30;99.90
23079;DHT22;11707;50.830;4.364;2023-01-24T01:31:07;3.30;99.90
23079;DHT22;11707;50.830;4.364;2023-01-24T01:33:33;3.20;99.90
23079;DHT22;11707;50.830;4.364;2023-01-24T01:35:59;3.20;99.90
23079;DHT22;11707;50.830;4.364;2023-01-24T01:38:24;3.30;99.90
23079;DHT22;11707;50.830;4.364;2023-01-24T01:40:53;3.20;99.90
23079;DHT22;11707;50.830;4.364;2023-01-24T01:43:21;3.20;99.90
23079;DHT22;11707;50.830;4.364;2023-01-24T01:45:52;3.20;99.90
23079;DHT22;11707;50.830;4.364;2023-01-24T01:48:38;3.40;99.90
23079;DHT22;11707;50.830;4.364;2023-01-24T01:53:49;3.20;99.90
23079;DHT22;11707;50.830;4.364;2023-01-24T01:56:32;3.30;99.90
23079;DHT22;11707;50.830;4.364;2023-01-24T01:59:04;3.30;99.90
23079;DHT22;11707;50.830;4.364;2023-01-24T02:01:31;3.20;99.90
23079;DHT22;11707;50.830;4.364;2023-01-24T02:04:12;3.30;99.90
23079;DHT22;11707;50.830;4.364;2023-01-24T02:07:32;3.20;99.90
23079;DHT22;11707;50.830;4.364;2023-01-24T02:09:52;3.10;99.90
23079;DHT22;11707;50.830;4.364;2023-01-24T02:12:37;3.20;99.90
23079;DHT22;11707;50.830;4.364;2023-01-24T02:15:11;3.20;99.90
23079;DHT22;11707;50.830;4.364;2023-01-24T02:17:57;3.30;99.90
23079;DHT22;11707;50.830;4.364;2023-01-24T02:20:37;3.30;99.90
23079;DHT22;11707;50.830;4.364;2023-01-24T02:28:11;3.10;99.90
23079;DHT22;11707;50.830;4.364;2023-01-24T02:30:38;3.20;99.90
23079;DHT22;11707;50.830;4.364;2023-01-24T02:33:12;3.20;99.90
23079;DHT22;11707;50.830;4.364;2023-01-24T02:35:39;3.10;99.90
23079;DHT22;11707;50.830;4.364;2023-01-24T02:38:09;3.10;99.90
23079;DHT22;11707;50.830;4.364;2023-01-24T02:40:36;2.90;99.90
23079;DHT22;11707;50.830;4.364;2023-01-24T02:43:04;3.00;99.90
23079;DHT22;11707;50.830;4.364;2023-01-24T02:45:33;3.10;99.90
23079;DHT22;11707;50.830;4.364;2023-01-24T02:47:59;3.10;99.90
23079;DHT22;11707;50.830;4.364;2023-01-24T02:50:28;3.00;99.90
23079;DHT22;11707;50.830;4.364;2023-01-24T02:52:54;3.00;99.90
23079;DHT22;11707;50.830;4.364;2023-01-24T02:55:39;3.10;99.90
23079;DHT22;11707;50.830;4.364;2023-01-24T02:58:26;3.10;99.90
23079;DHT22;11707;50.830;4.364;2023-01-24T03:00:51;3.00;99.90
23079;DHT22;11707;50.830;4.364;2023-01-24T03:03:17;3.00;99.90
23079;DHT22;11707;50.830;4.364;2023-01-24T03:05:43;3.10;99.90
23079;DHT22;11707;50.830;4.364;2023-01-24T03:08:32;3.10;99.90
23079;DHT22;11707;50.830;4.364;2023-01-24T03:10:58;3.20;99.90
23079;DHT22;11707;50.830;4.364;2023-01-24T03:13:24;3.10;99.90
23079;DHT22;11707;50.830;4.364;2023-01-24T03:16:09;3.10;99.90
23079;DHT22;11707;50.830;4.364;2023-01-24T03:18:54;3.20;99.90
23079;DHT22;11707;50.830;4.364;2023-01-24T03:21:38;3.10;99.90
23079;DHT22;11707;50.830;4.364;2023-01-24T03:24:22;3.00;99.90
23079;DHT22;11707;50.830;4.364;2023-01-24T03:27:08;3.10;99.90
23079;DHT22;11707;50.830;4.364;2023-01-24T03:29:52;3.10;99.90
23079;DHT22;11707;50.830;4.364;2023-01-24T03:32:36;2.90;99.90
23079;DHT22;11707;50.830;4.364;2023-01-24T03:35:21;2.80;99.90
23079;DHT22;11707;50.830;4.364;2023-01-24T03:37:47;2.90;99.90
23079;DHT22;11707;50.830;4.364;2023-01-24T03:40:31;3.10;99.90
23079;DHT22;11707;50.830;4.364;2023-01-24T03:42:58;3.00;99.90
23079;DHT22;11707;50.830;4.364;2023-01-24T03:45:26;3.10;99.90
23079;DHT22;11707;50.830;4.364;2023-01-24T03:47:55;3.10;99.90
23079;DHT22;11707;50.830;4.364;2023-01-24T03:50:31;3.10;99.90
23079;DHT22;11707;50.830;4.364;2023-01-24T03:53:17;3.10;99.90
23079;DHT22;11707;50.830;4.364;2023-01-24T03:55:43;3.10;99.90
23079;DHT22;11707;50.830;4.364;2023-01-24T06:48:22;2.40;99.90
23079;DHT22;11707;50.830;4.364;2023-01-24T06:50:48;3.00;99.90
23079;DHT22;11707;50.830;4.364;2023-01-24T06:53:13;3.00;99.90
23079;DHT22;11707;50.830;4.364;2023-01-24T06:55:44;3.10;99.90
23079;DHT22;11707;50.830;4.364;2023-01-24T06:58:10;2.90;99.90
23079;DHT22;11707;50.830;4.364;2023-01-24T07:00:36;3.00;99.90
23079;DHT22;11707;50.830;4.364;2023-01-24T07:03:04;2.80;99.90
23079;DHT22;11707;50.830;4.364;2023-01-24T07:05:32;2.90;99.90
23079;DHT22;11707;50.830;4.364;2023-01-24T07:07:58;2.90;99.90
23079;DHT22;11707;50.830;4.364;2023-01-24T07:10:24;2.80;99.90
23079;DHT22;11707;50.830;4.364;2023-01-24T07:12:50;2.80;99.90
23079;DHT22;11707;50.830;4.364;2023-01-24T07:15:16;2.80;99.90
23079;DHT22;11707;50.830;4.364;2023-01-24T07:17:43;2.80;99.90
23079;DHT22;11707;50.830;4.364;2023-01-24T07:20:11;2.80;99.90
23079;DHT22;11707;50.830;4.364;2023-01-24T07:22:37;2.80;99.90
23079;DHT22;11707;50.830;4.364;2023-01-24T07:25:05;2.90;99.90
23079;DHT22;11707;50.830;4.364;2023-01-24T07:27:31;3.00;99.90
23079;DHT22;11707;50.830;4.364;2023-01-24T07:29:57;3.00;99.90
23079;DHT22;11707;50.830;4.364;2023-01-24T07:32:23;3.00;99.90
23079;DHT22;11707;50.830;4.364;2023-01-24T07:34:48;2.80;99.90
23079;DHT22;11707;50.830;4.364;2023-01-24T07:37:14;2.90;99.90
23079;DHT22;11707;50.830;4.364;2023-01-24T07:39:41;2.90;99.90
23079;DHT22;11707;50.830;4.364;2023-01-24T07:42:07;3.10;99.90
23079;DHT22;11707;50.830;4.364;2023-01-24T07:44:33;3.00;99.90
23079;DHT22;11707;50.830;4.364;2023-01-24T07:46:59;2.90;99.90
23079;DHT22;11707;50.830;4.364;2023-01-24T07:49:24;2.90;99.90
23079;DHT22;11707;50.830;4.364;2023-01-24T07:51:51;2.90;99.90
23079;DHT22;11707;50.830;4.364;2023-01-24T07:54:17;2.90;99.90
23079;DHT22;11707;50.830;4.364;2023-01-24T07:56:45;2.90;99.90
23079;DHT22;11707;50.830;4.364;2023-01-24T07:59:11;2.90;99.90
23079;DHT22;11707;50.830;4.364;2023-01-24T08:01:37;2.70;99.90
23079;DHT22;11707;50.830;4.364;2023-01-24T08:04:03;2.70;99.90
23079;DHT22;11707;50.830;4.364;2023-01-24T08:06:28;2.60;99.90
23079;DHT22;11707;50.830;4.364;2023-01-24T08:08:54;2.70;99.90
23079;DHT22;11707;50.830;4.364;2023-01-24T08:11:20;2.70;99.90
23079;DHT22;11707;50.830;4.364;2023-01-24T08:13:47;2.80;99.90
23079;DHT22;11707;50.830;4.364;2023-01-24T08:16:15;2.80;99.90
23079;DHT22;11707;50.830;4.364;2023-01-24T08:18:41;3.00;99.90
23079;DHT22;11707;50.830;4.364;2023-01-24T08:21:09;3.00;99.90
23079;DHT22;11707;50.830;4.364;2023-01-24T08:23:35;2.90;99.90
23079;DHT22;11707;50.830;4.364;2023-01-24T08:26:02;2.90;99.90
23079;DHT22;11707;50.830;4.364;2023-01-24T08:28:28;2.90;99.90
23079;DHT22;11707;50.830;4.364;2023-01-24T08:30:57;2.70;99.90
23079;DHT22;11707;50.830;4.364;2023-01-24T08:33:23;2.80;99.90
23079;DHT22;11707;50.830;4.364;2023-01-24T08:35:49;2.90;99.90
23079;DHT22;11707;50.830;4.364;2023-01-24T08:38:15;3.00;99.90
23079;DHT22;11707;50.830;4.364;2023-01-24T08:40:42;2.90;99.90
23079;DHT22;11707;50.830;4.364;2023-01-24T08:43:08;2.90;99.90
23079;DHT22;11707;50.830;4.364;2023-01-24T08:45:34;3.00;99.90
23079;DHT22;11707;50.830;4.364;2023-01-24T08:48:00;3.00;99.90
23079;DHT22;11707;50.830;4.364;2023-01-24T08:50:26;3.10;99.90
23079;DHT22;11707;50.830;4.364;2023-01-24T08:52:56;3.10;99.90
23079;DHT22;11707;50.830;4.364;2023-01-24T08:55:23;3.10;99.90
23079;DHT22;11707;50.830;4.364;2023-01-24T08:57:49;3.10;99.90
23079;DHT22;11707;50.830;4.364;2023-01-24T09:00:15;3.10;99.90
23079;DHT22;11707;50.830;4.364;2023-01-24T09:02:41;3.10;99.90
23079;DHT22;11707;50.830;4.364;2023-01-24T09:05:08;3.10;99.90
23079;DHT22;11707;50.830;4.364;2023-01-24T09:07:34;3.00;99.90
23079;DHT22;11707;50.830;4.364;2023-01-24T09:10:03;3.00;99.90
23079;DHT22;11707;50.830;4.364;2023-01-24T09:12:29;2.90;99.90
23079;DHT22;11707;50.830;4.364;2023-01-24T09:14:57;2.90;99.90
23079;DHT22;11707;50.830;4.364;2023-01-24T09:17:23;2.90;99.90
23079;DHT22;11707;50.830;4.364;2023-01-24T09:19:49;3.00;99.90
23079;DHT22;11707;50.830;4.364;2023-01-24T09:22:14;3.10;99.90
23079;DHT22;11707;50.830;4.364;2023-01-24T09:24:40;3.20;99.90
23079;DHT22;11707;50.830;4.364;2023-01-24T09:27:06;3.20;99.90
23079;DHT22;11707;50.830;4.364;2023-01-24T09:29:31;3.20;99.90
23079;DHT22;11707;50.830;4.364;2023-01-24T09:31:57;3.30;99.90
23079;DHT22;11707;50.830;4.364;2023-01-24T09:34:23;3.30;99.90
23079;DHT22;11707;50.830;4.364;2023-01-24T09:36:49;3.20;99.90
23079;DHT22;11707;50.830;4.364;2023-01-24T09:39:15;3.20;99.90
23079;DHT22;11707;50.830;4.364;2023-01-24T09:42:03;3.10;99.90
23079;DHT22;11707;50.830;4.364;2023-01-24T09:44:43;2.90;99.90
23079;DHT22;11707;50.830;4.364;2023-01-24T09:50:25;3.10;99.90
23079;DHT22;11707;50.830;4.364;2023-01-24T09:52:55;3.00;99.90
23079;DHT22;11707;50.830;4.364;2023-01-24T09:55:28;3.00;99.90
23079;DHT22;11707;50.830;4.364;2023-01-24T10:00:31;3.00;99.90
23079;DHT22;11707;50.830;4.364;2023-01-24T10:02:59;3.00;99.90
23079;DHT22;11707;50.830;4.364;2023-01-24T10:05:38;3.00;99.90
23079;DHT22;11707;50.830;4.364;2023-01-24T10:13:41;3.10;99.90
23079;DHT22;11707;50.830;4.364;2023-01-24T10:24:26;3.00;99.90
23079;DHT22;11707;50.830;4.364;2023-01-24T10:26:53;3.00;99.90
23079;DHT22;11707;50.830;4.364;2023-01-24T10:29:30;2.90;99.90
23079;DHT22;11707;50.830;4.364;2023-01-24T10:31:56;2.90;99.90
23079;DHT22;11707;50.830;4.364;2023-01-24T10:34:46;2.90;99.90
23079;DHT22;11707;50.830;4.364;2023-01-24T10:37:24;3.00;99.90
23079;DHT22;11707;50.830;4.364;2023-01-24T10:39:51;3.20;99.90
23079;DHT22;11707;50.830;4.364;2023-01-24T10:42:28;3.10;99.90
23079;DHT22;11707;50.830;4.364;2023-01-24T10:50:51;3.10;99.90
23079;DHT22;11707;50.830;4.364;2023-01-24T10:53:25;3.30;99.90
23079;DHT22;11707;50.830;4.364;2023-01-24T10:56:00;3.00;99.90
23079;DHT22;11707;50.830;4.364;2023-01-24T10:58:32;3.10;99.90
23079;DHT22;11707;50.830;4.364;2023-01-24T11:01:20;3.10;99.90
23079;DHT22;11707;50.830;4.364;2023-01-24T11:03:51;3.00;99.90
23079;DHT22;11707;50.830;4.364;2023-01-24T11:06:33;2.90;99.90
23079;DHT22;11707;50.830;4.364;2023-01-24T11:09:14;3.00;99.90
23079;DHT22;11707;50.830;4.364;2023-01-24T11:11:46;3.20;99.90
23079;DHT22;11707;50.830;4.364;2023-01-24T11:14:15;3.10;99.90
23079;DHT22;11707;50.830;4.364;2023-01-24T11:16:45;3.10;99.90
23079;DHT22;11707;50.830;4.364;2023-01-24T11:19:31;3.10;99.90
23079;DHT22;11707;50.830;4.364;2023-01-24T11:22:00;3.20;99.90
23079;DHT22;11707;50.830;4.364;2023-01-24T11:24:28;3.20;99.90
23079;DHT22;11707;50.830;4.364;2023-01-24T11:27:13;3.20;99.90
23079;DHT22;11707;50.830;4.364;2023-01-24T11:29:39;3.20;99.90
23079;DHT22;11707;50.830;4.364;2023-01-24T11:34:43;3.30;99.90
23079;DHT22;11707;50.830;4.364;2023-01-24T11:39:54;3.20;99.90
23079;DHT22;11707;50.830;4.364;2023-01-24T11:45:18;3.30;99.90
23079;DHT22;11707;50.830;4.364;2023-01-24T12:00:53;3.50;99.90
23079;DHT22;11707;50.830;4.364;2023-01-24T12:09:09;3.50;99.90
23079;DHT22;11707;50.830;4.364;2023-01-24T12:11:48;3.60;99.90
23079;DHT22;11707;50.830;4.364;2023-01-24T12:14:46;3.60;99.90
23079;DHT22;11707;50.830;4.364;2023-01-24T12:23:28;3.50;99.90
23079;DHT22;11707;50.830;4.364;2023-01-24T12:26:02;3.40;99.90
23079;DHT22;11707;50.830;4.364;2023-01-24T12:28:34;3.20;99.90
23079;DHT22;11707;50.830;4.364;2023-01-24T12:31:03;3.20;99.90
23079;DHT22;11707;50.830;4.364;2023-01-24T12:33:55;3.30;99.90
23079;DHT22;11707;50.830;4.364;2023-01-24T12:36:36;3.10;99.90
23079;DHT22;11707;50.830;4.364;2023-01-24T12:39:32;3.10;99.90
23079;DHT22;11707;50.830;4.364;2023-01-24T12:42:06;3.10;99.90
23079;DHT22;11707;50.830;4.364;2023-01-24T12:44:42;3.00;99.90
23079;DHT22;11707;50.830;4.364;2023-01-24T12:47:21;3.10;99.90
23079;DHT22;11707;50.830;4.364;2023-01-24T12:50:12;3.00;99.90
23079;DHT22;11707;50.830;4.364;2023-01-24T12:55:33;3.30;99.90
23079;DHT22;11707;50.830;4.364;2023-01-24T12:58:13;3.20;99.90
23079;DHT22;11707;50.830;4.364;2023-01-24T13:09:28;3.50;99.90
23079;DHT22;11707;50.830;4.364;2023-01-24T13:11:57;3.30;99.90
23079;DHT22;11707;50.830;4.364;2023-01-24T13:14:34;3.50;99.90
23079;DHT22;11707;50.830;4.364;2023-01-24T13:28:15;3.70;99.90
23079;DHT22;11707;50.830;4.364;2023-01-24T13:31:32;3.70;99.90
23079;DHT22;11707;50.830;4.364;2023-01-24T13:34:05;3.70;99.90
23079;DHT22;11707;50.830;4.364;2023-01-24T13:36:37;3.70;99.90
23079;DHT22;11707;50.830;4.364;2023-01-24T13:39:04;3.60;99.90
23079;DHT22;11707;50.830;4.364;2023-01-24T13:41:35;3.50;99.90
23079;DHT22;11707;50.830;4.364;2023-01-24T13:44:25;3.50;99.90
23079;DHT22;11707;50.830;4.364;2023-01-24T13:46:58;3.60;99.90
23079;DHT22;11707;50.830;4.364;2023-01-24T13:51:54;3.60;99.90
23079;DHT22;11707;50.830;4.364;2023-01-24T13:54:33;3.50;99.90
23079;DHT22;11707;50.830;4.364;2023-01-24T13:57:18;3.50;99.90
23079;DHT22;11707;50.830;4.364;2023-01-24T14:00:00;3.40;99.90
23079;DHT22;11707;50.830;4.364;2023-01-24T14:02:31;3.40;99.90
23079;DHT22;11707;50.830;4.364;2023-01-24T14:04:58;3.30;99.90
23079;DHT22;11707;50.830;4.364;2023-01-24T14:07:39;3.30;99.90
23079;DHT22;11707;50.830;4.364;2023-01-24T14:10:06;3.40;99.90
23079;DHT22;11707;50.830;4.364;2023-01-24T14:12:37;3.40;99.90
23079;DHT22;11707;50.830;4.364;2023-01-24T14:22:58;3.10;99.90
23079;DHT22;11707;50.830;4.364;2023-01-24T14:28:00;3.00;99.90
23079;DHT22;11707;50.830;4.364;2023-01-24T14:33:17;3.20;99.90
23079;DHT22;11707;50.830;4.364;2023-01-24T14:36:12;3.20;99.90
23079;DHT22;11707;50.830;4.364;2023-01-24T14:38:38;3.30;99.90
23079;DHT22;11707;50.830;4.364;2023-01-24T14:41:04;3.30;99.90
23079;DHT22;11707;50.830;4.364;2023-01-24T14:43:36;3.40;99.90
23079;DHT22;11707;50.830;4.364;2023-01-24T14:46:10;3.40;99.90
23079;DHT22;11707;50.830;4.364;2023-01-24T14:48:36;3.20;99.90
23079;DHT22;11707;50.830;4.364;2023-01-24T14:51:07;3.10;99.90
23079;DHT22;11707;50.830;4.364;2023-01-24T14:53:37;3.10;99.90
23079;DHT22;11707;50.830;4.364;2023-01-24T14:56:09;3.10;99.90
23079;DHT22;11707;50.830;4.364;2023-01-24T14:58:37;3.00;99.90
23079;DHT22;11707;50.830;4.364;2023-01-24T15:01:03;3.10;99.90
23079;DHT22;11707;50.830;4.364;2023-01-24T15:03:45;3.20;99.90
23079;DHT22;11707;50.830;4.364;2023-01-24T15:06:17;3.20;99.90
23079;DHT22;11707;50.830;4.364;2023-01-24T15:08:44;3.20;99.90
23079;DHT22;11707;50.830;4.364;2023-01-24T15:11:20;3.10;99.90
23079;DHT22;11707;50.830;4.364;2023-01-24T15:13:54;3.10;99.90
23079;DHT22;11707;50.830;4.364;2023-01-24T15:16:24;3.10;99.90
23079;DHT22;11707;50.830;4.364;2023-01-24T15:18:52;3.20;99.90
23079;DHT22;11707;50.830;4.364;2023-01-24T15:21:22;3.20;99.90
23079;DHT22;11707;50.830;4.364;2023-01-24T15:23:53;3.20;99.90
23079;DHT22;11707;50.830;4.364;2023-01-24T15:28:54;3.20;99.90
23079;DHT22;11707;50.830;4.364;2023-01-24T15:31:27;3.20;99.90
23079;DHT22;11707;50.830;4.364;2023-01-24T15:34:00;3.20;99.90
23079;DHT22;11707;50.830;4.364;2023-01-24T15:36:31;3.30;99.90
23079;DHT22;11707;50.830;4.364;2023-01-24T15:38:59;3.20;99.90
23079;DHT22;11707;50.830;4.364;2023-01-24T15:41:26;3.00;99.90
23079;DHT22;11707;50.830;4.364;2023-01-24T15:44:13;3.10;99.90
23079;DHT22;11707;50.830;4.364;2023-01-24T15:46:41;3.20;99.90
23079;DHT22;11707;50.830;4.364;2023-01-24T15:49:29;3.20;99.90
23079;DHT22;11707;50.830;4.364;2023-01-24T15:54:39;3.20;99.90
23079;DHT22;11707;50.830;4.364;2023-01-24T15:59:54;3.20;99.90
23079;DHT22;11707;50.830;4.364;2023-01-24T16:02:21;3.00;99.90
23079;DHT22;11707;50.830;4.364;2023-01-24T16:04:46;2.80;99.90
23079;DHT22;11707;50.830;4.364;2023-01-24T16:07:14;2.70;99.90
23079;DHT22;11707;50.830;4.364;2023-01-24T16:09:40;2.70;99.90
23079;DHT22;11707;50.830;4.364;2023-01-24T16:12:10;2.70;99.90
23079;DHT22;11707;50.830;4.364;2023-01-24T16:14:38;2.70;99.90
23079;DHT22;11707;50.830;4.364;2023-01-24T16:17:05;2.70;99.90
23079;DHT22;11707;50.830;4.364;2023-01-24T16:19:31;2.80;99.90
23079;DHT22;11707;50.830;4.364;2023-01-24T16:21:57;2.90;99.90
23079;DHT22;11707;50.830;4.364;2023-01-24T16:24:22;3.00;99.90
23079;DHT22;11707;50.830;4.364;2023-01-24T16:26:51;2.90;99.90
23079;DHT22;11707;50.830;4.364;2023-01-24T16:29:23;2.90;99.90
23079;DHT22;11707;50.830;4.364;2023-01-24T16:31:49;3.00;99.90
23079;DHT22;11707;50.830;4.364;2023-01-24T16:34:15;2.90;99.90
23079;DHT22;11707;50.830;4.364;2023-01-24T16:36:41;2.90;99.90
23079;DHT22;11707;50.830;4.364;2023-01-24T16:39:08;2.80;99.90
23079;DHT22;11707;50.830;4.364;2023-01-24T16:41:34;2.70;99.90
23079;DHT22;11707;50.830;4.364;2023-01-24T16:44:01;2.80;99.90
23079;DHT22;11707;50.830;4.364;2023-01-24T16:46:26;2.90;99.90
23079;DHT22;11707;50.830;4.364;2023-01-24T16:48:52;2.80;99.90
23079;DHT22;11707;50.830;4.364;2023-01-24T16:51:19;2.90;99.90
23079;DHT22;11707;50.830;4.364;2023-01-24T16:53:45;2.80;99.90
23079;DHT22;11707;50.830;4.364;2023-01-24T16:56:11;2.80;99.90
23079;DHT22;11707;50.830;4.364;2023-01-24T16:58:37;2.90;99.90
23079;DHT22;11707;50.830;4.364;2023-01-24T17:01:08;2.90;99.90
23079;DHT22;11707;50.830;4.364;2023-01-24T17:03:34;3.00;99.90
23079;DHT22;11707;50.830;4.364;2023-01-24T17:06:05;3.00;99.90
23079;DHT22;11707;50.830;4.364;2023-01-24T17:08:31;2.90;99.90
23079;DHT22;11707;50.830;4.364;2023-01-24T17:11:06;2.90;99.90
23079;DHT22;11707;50.830;4.364;2023-01-24T17:13:32;2.90;99.90
23079;DHT22;11707;50.830;4.364;2023-01-24T17:16:09;2.90;99.90
23079;DHT22;11707;50.830;4.364;2023-01-24T17:18:36;2.90;99.90
23079;DHT22;11707;50.830;4.364;2023-01-24T17:21:07;2.90;99.90
23079;DHT22;11707;50.830;4.364;2023-01-24T17:23:35;2.70;99.90
23079;DHT22;11707;50.830;4.364;2023-01-24T17:26:14;2.60;99.90
23079;DHT22;11707;50.830;4.364;2023-01-24T17:28:41;2.60;99.90
23079;DHT22;11707;50.830;4.364;2023-01-24T17:31:15;2.70;99.90
23079;DHT22;11707;50.830;4.364;2023-01-24T17:33:41;2.70;99.90
23079;DHT22;11707;50.830;4.364;2023-01-24T17:36:07;2.70;99.90
23079;DHT22;11707;50.830;4.364;2023-01-24T17:38:35;2.60;99.90
23079;DHT22;11707;50.830;4.364;2023-01-24T17:41:01;2.40;99.90
23079;DHT22;11707;50.830;4.364;2023-01-24T17:43:28;2.50;99.90
23079;DHT22;11707;50.830;4.364;2023-01-24T17:45:59;2.50;99.90
23079;DHT22;11707;50.830;4.364;2023-01-24T17:48:26;2.40;99.90
23079;DHT22;11707;50.830;4.364;2023-01-24T17:50:52;2.50;99.90
23079;DHT22;11707;50.830;4.364;2023-01-24T17:53:19;2.40;99.90
23079;DHT22;11707;50.830;4.364;2023-01-24T17:55:45;2.50;99.90
23079;DHT22;11707;50.830;4.364;2023-01-24T17:58:11;2.30;99.90
23079;DHT22;11707;50.830;4.364;2023-01-24T18:00:38;2.40;99.90
23079;DHT22;11707;50.830;4.364;2023-01-24T18:03:04;2.40;99.90
23079;DHT22;11707;50.830;4.364;2023-01-24T18:05:32;2.40;99.90
23079;DHT22;11707;50.830;4.364;2023-01-24T18:07:58;2.40;99.90
23079;DHT22;11707;50.830;4.364;2023-01-24T18:10:24;2.30;99.90
23079;DHT22;11707;50.830;4.364;2023-01-24T18:12:49;2.40;99.90
23079;DHT22;11707;50.830;4.364;2023-01-24T18:15:15;2.40;99.90
23079;DHT22;11707;50.830;4.364;2023-01-24T18:17:41;2.40;99.90
23079;DHT22;11707;50.830;4.364;2023-01-24T18:20:10;2.40;99.90
23079;DHT22;11707;50.830;4.364;2023-01-24T18:22:41;2.50;99.90
23079;DHT22;11707;50.830;4.364;2023-01-24T18:25:10;2.50;99.90
23079;DHT22;11707;50.830;4.364;2023-01-24T18:27:36;2.50;99.90
23079;DHT22;11707;50.830;4.364;2023-01-24T18:30:04;2.40;99.90
23079;DHT22;11707;50.830;4.364;2023-01-24T18:32:30;2.50;99.90
23079;DHT22;11707;50.830;4.364;2023-01-24T18:34:56;2.40;99.90
23079;DHT22;11707;50.830;4.364;2023-01-24T18:37:22;2.40;99.90
23079;DHT22;11707;50.830;4.364;2023-01-24T18:39:48;2.40;99.90
23079;DHT22;11707;50.830;4.364;2023-01-24T18:42:14;2.30;99.90
23079;DHT22;11707;50.830;4.364;2023-01-24T18:44:39;2.40;99.90
23079;DHT22;11707;50.830;4.364;2023-01-24T18:47:05;2.20;99.90
23079;DHT22;11707;50.830;4.364;2023-01-24T18:49:31;2.30;99.90
23079;DHT22;11707;50.830;4.364;2023-01-24T18:51:57;2.40;99.90
23079;DHT22;11707;50.830;4.364;2023-01-24T18:54:23;2.40;99.90
23079;DHT22;11707;50.830;4.364;2023-01-24T18:56:50;2.50;99.90
23079;DHT22;11707;50.830;4.364;2023-01-24T18:59:16;2.60;99.90
23079;DHT22;11707;50.830;4.364;2023-01-24T19:01:42;2.70;99.90
23079;DHT22;11707;50.830;4.364;2023-01-24T19:04:08;2.70;99.90
23079;DHT22;11707;50.830;4.364;2023-01-24T19:06:35;2.60;99.90
23079;DHT22;11707;50.830;4.364;2023-01-24T19:09:03;2.50;99.90
23079;DHT22;11707;50.830;4.364;2023-01-24T19:11:34;2.40;99.90
23079;DHT22;11707;50.830;4.364;2023-01-24T19:14:00;2.40;99.90
23079;DHT22;11707;50.830;4.364;2023-01-24T19:16:30;2.40;99.90
23079;DHT22;11707;50.830;4.364;2023-01-24T19:18:55;2.40;99.90
23079;DHT22;11707;50.830;4.364;2023-01-24T19:21:21;2.40;99.90
23079;DHT22;11707;50.830;4.364;2023-01-24T19:23:49;2.50;99.90
23079;DHT22;11707;50.830;4.364;2023-01-24T19:26:16;2.50;99.90
23079;DHT22;11707;50.830;4.364;2023-01-24T19:28:42;2.50;99.90
23079;DHT22;11707;50.830;4.364;2023-01-24T19:31:08;2.50;99.90
23079;DHT22;11707;50.830;4.364;2023-01-24T19:33:37;2.40;99.90
23079;DHT22;11707;50.830;4.364;2023-01-24T19:36:05;2.60;99.90
23079;DHT22;11707;50.830;4.364;2023-01-24T19:38:31;2.70;99.90
23079;DHT22;11707;50.830;4.364;2023-01-24T19:41:02;2.60;99.90
23079;DHT22;11707;50.830;4.364;2023-01-24T19:43:28;2.60;99.90
23079;DHT22;11707;50.830;4.364;2023-01-24T19:45:54;2.70;99.90
23079;DHT22;11707;50.830;4.364;2023-01-24T19:48:19;2.60;99.90
23079;DHT22;11707;50.830;4.364;2023-01-24T19:50:45;2.70;99.90
23079;DHT22;11707;50.830;4.364;2023-01-24T19:53:12;2.50;99.90
23079;DHT22;11707;50.830;4.364;2023-01-24T19:55:37;2.40;99.90
23079;DHT22;11707;50.830;4.364;2023-01-24T19:58:05;2.40;99.90
23079;DHT22;11707;50.830;4.364;2023-01-24T20:00:32;2.40;99.90
23079;DHT22;11707;50.830;4.364;2023-01-24T20:02:58;2.40;99.90
23079;DHT22;11707;50.830;4.364;2023-01-24T20:05:25;2.10;99.90
23079;DHT22;11707;50.830;4.364;2023-01-24T20:07:55;2.00;99.90
23079;DHT22;11707;50.830;4.364;2023-01-24T20:10:22;2.30;99.90
23079;DHT22;11707;50.830;4.364;2023-01-24T20:12:51;2.30;99.90
23079;DHT22;11707;50.830;4.364;2023-01-24T20:15:17;2.10;99.90
23079;DHT22;11707;50.830;4.364;2023-01-24T20:17:43;2.20;99.90
23079;DHT22;11707;50.830;4.364;2023-01-24T20:20:09;2.30;99.90
23079;DHT22;11707;50.830;4.364;2023-01-24T20:22:35;2.30;99.90
23079;DHT22;11707;50.830;4.364;2023-01-24T20:25:02;2.30;99.90
23079;DHT22;11707;50.830;4.364;2023-01-24T20:27:28;2.40;99.90
23079;DHT22;11707;50.830;4.364;2023-01-24T20:29:54;2.50;99.90
23079;DHT22;11707;50.830;4.364;2023-01-24T20:32:19;2.60;99.90
23079;DHT22;11707;50.830;4.364;2023-01-24T20:34:45;2.70;99.90
23079;DHT22;11707;50.830;4.364;2023-01-24T20:37:13;2.80;99.90
23079;DHT22;11707;50.830;4.364;2023-01-24T20:39:38;2.90;99.90
23079;DHT22;11707;50.830;4.364;2023-01-24T20:42:06;2.80;99.90
23079;DHT22;11707;50.830;4.364;2023-01-24T20:44:31;2.70;99.90